Time;durP1;ratioP1;P1;durP2;ratioP2;P2;SDS_P1;SDS_P2;PMS_P1;PMS_P2;Temp;Humidity;BMP_temperature;BMP_pressure;BME280_temperature;BME280_humidity;BME280_pressure;Samples;Min_cycle;Max_cycle;Signal;HPM_P1;HPM_P2
2021/03/23 06:40:27;;;;;;;9.93;3.42;;;;;;;-1.78;73.61;99248.41;1813973;77;25823;-58
2021/03/23 06:43:00;;;;;;;5.78;2.62;;;;;;;-1.82;73.64;99254.61;1780110;80;21748;-56
2021/03/23 06:45:34;;;;;;;8.85;3.62;;;;;;;-1.82;73.64;99254.61;1771515;80;21150;-57
2021/03/23 06:48:23;;;;;;;6.00;2.83;;;;;;;-1.67;73.66;99266.06;1779987;78;21672;-56
2021/03/23 06:51:12;;;;;;;6.62;2.65;;;;;;;-1.53;73.67;99266.52;1774765;80;21265;-55
2021/03/23 06:53:41;;;;;;;13.95;4.28;;;;;;;-1.34;73.29;99270.07;1776243;80;21717;-55
2021/03/23 06:56:25;;;;;;;13.38;5.25;;;;;;;-1.15;72.53;99281.31;1752950;80;21550;-58
2021/03/23 06:59:15;;;;;;;10.23;3.30;;;;;;;-1.10;71.60;99276.27;1785565;80;21254;-57
2021/03/23 07:01:45;;;;;;;16.07;5.42;;;;;;;-1.10;70.91;99275.44;1766787;80;21694;-58
2021/03/23 07:04:33;;;;;;;11.65;3.22;;;;;;;-1.05;70.69;99272.14;1790035;80;21123;-56
2021/03/23 07:07:17;;;;;;;12.00;4.25;;;;;;;-0.97;71.12;99283.20;1784296;80;21554;-55
2021/03/23 07:09:49;;;;;;;3.87;1.77;;;;;;;-0.76;70.39;99278.46;1793714;80;21273;-56
2021/03/23 07:12:20;;;;;;;5.15;2.58;;;;;;;-0.76;70.39;99278.46;1793672;80;21562;-55
2021/03/23 07:14:50;;;;;;;4.87;1.35;;;;;;;-0.71;70.28;99283.67;1765153;80;21308;-56
2021/03/23 07:17:23;;;;;;;4.25;1.45;;;;;;;-0.66;69.73;99284.20;1754682;81;21615;-57
2021/03/23 07:19:56;;;;;;;3.70;1.92;;;;;;;-0.57;69.55;99282.80;1744081;81;21163;-57
2021/03/23 07:22:50;;;;;;;18.50;7.55;;;;;;;-0.47;69.26;99286.89;1739224;81;21293;-57
2021/03/23 07:25:42;;;;;;;22.10;7.65;;;;;;;-0.37;68.68;99278.97;1739388;81;21621;-56
2021/03/23 07:28:35;;;;;;;5.22;2.33;;;;;;;-0.20;68.50;99286.84;1740368;81;21142;-56
2021/03/23 07:31:29;;;;;;;6.35;3.20;;;;;;;-0.13;67.83;99282.95;1753282;81;21122;-57
2021/03/23 07:34:30;;;;;;;8.45;4.00;;;;;;;-0.12;67.28;99286.73;1742961;81;21131;-57
2021/03/23 07:37:34;;;;;;;4.17;2.37;;;;;;;-0.15;66.74;99288.66;1736670;81;21296;-57
2021/03/23 07:40:40;;;;;;;5.97;2.58;;;;;;;-0.19;66.59;99291.05;1736720;81;21163;-57
2021/03/23 07:43:43;;;;;;;7.90;3.77;;;;;;;-0.07;68.07;99288.51;1698532;82;21878;-58
2021/03/23 07:46:25;;;;;;;13.45;3.65;;;;;;;-0.07;68.07;99288.51;1740828;82;21576;-56
2021/03/23 07:49:41;;;;;;;3.45;2.30;;;;;;;0.09;67.64;99281.09;1727720;82;21602;-57
2021/03/23 07:52:25;;;;;;;7.65;3.37;;;;;;;0.17;67.08;99283.97;1741171;82;21088;-61
2021/03/23 07:54:58;;;;;;;6.62;2.98;;;;;;;0.15;66.45;99291.78;1736358;82;21682;-58
2021/03/23 07:57:50;;;;;;;10.13;3.47;;;;;;;0.16;65.57;99288.28;1730090;82;21587;-58
2021/03/23 08:01:02;;;;;;;10.95;3.55;;;;;;;0.18;64.89;99286.42;1748137;82;21753;-57
2021/03/23 08:04:13;;;;;;;16.55;5.58;;;;;;;0.37;65.64;99292.91;1736705;82;21135;-55
2021/03/23 08:07:05;;;;;;;13.58;4.65;;;;;;;0.37;65.64;99292.91;1738726;82;21692;-56
2021/03/23 08:10:05;;;;;;;13.15;4.50;;;;;;;0.49;63.75;99288.22;1734985;82;21660;-55
2021/03/23 08:12:51;;;;;;;4.92;2.05;;;;;;;0.52;63.01;99294.46;1744244;82;22249;-56
2021/03/23 08:15:57;;;;;;;7.55;2.90;;;;;;;0.50;62.60;99288.61;1731059;82;21558;-57
2021/03/23 08:18:50;;;;;;;19.12;5.80;;;;;;;0.50;62.56;99289.89;1732169;82;21535;-56
2021/03/23 08:21:54;;;;;;;6.55;2.60;;;;;;;0.52;62.04;99283.71;1712777;81;21199;-58
2021/03/23 08:24:53;;;;;;;8.17;3.17;;;;;;;0.60;62.51;99283.18;1704832;84;21599;-56
2021/03/23 08:27:35;;;;;;;11.88;4.12;;;;;;;0.69;62.64;99283.03;1701336;84;21784;-57
2021/03/23 08:30:16;;;;;;;9.95;4.15;;;;;;;0.78;61.32;99280.63;1720852;82;21147;-56
2021/03/23 08:33:17;;;;;;;10.80;3.37;;;;;;;0.84;60.72;99281.96;1732228;82;21653;-55
2021/03/23 08:35:58;;;;;;;16.07;4.30;;;;;;;0.98;60.13;99272.81;1718505;82;22192;-57
2021/03/23 08:38:40;;;;;;;12.18;4.33;;;;;;;1.11;60.39;99271.48;1730279;81;21145;-55
2021/03/23 08:41:38;;;;;;;8.93;3.22;;;;;;;1.16;59.84;99277.13;1740883;81;21186;-53
2021/03/23 08:44:28;;;;;;;8.75;2.85;;;;;;;1.13;59.57;99279.94;1746987;81;21596;-57
2021/03/23 08:47:00;;;;;;;7.22;3.40;;;;;;;1.05;59.05;99282.20;1743603;81;21194;-56
2021/03/23 08:49:30;;;;;;;7.67;3.10;;;;;;;0.94;59.62;99279.59;1737654;81;22276;-55
2021/03/23 08:51:58;;;;;;;12.07;4.65;;;;;;;0.87;60.10;99279.63;1746697;81;21594;-56
2021/03/23 08:54:49;;;;;;;11.53;4.47;;;;;;;0.83;60.89;99287.22;1744723;81;21646;-57
2021/03/23 08:57:18;;;;;;;6.67;3.22;;;;;;;0.83;61.44;99282.08;1740139;81;21150;-56
2021/03/23 08:59:50;;;;;;;4.45;2.55;;;;;;;0.90;61.84;99282.00;1750625;81;21154;-57
2021/03/23 09:02:30;;;;;;;8.43;3.33;;;;;;;0.96;62.02;99283.69;1758857;81;21115;-57
2021/03/23 09:04:59;;;;;;;11.75;5.35;;;;;;;1.03;60.92;99286.18;1744714;81;21594;-57
2021/03/23 09:07:34;;;;;;;8.58;3.15;;;;;;;0.97;60.48;99287.08;1730391;83;21614;-57
2021/03/23 09:10:26;;;;;;;3.77;2.05;;;;;;;0.88;60.87;99287.27;1730169;82;21702;-57
2021/03/23 09:12:56;;;;;;;20.97;4.08;;;;;;;0.87;60.53;99277.91;1731415;80;21409;-57
2021/03/23 09:15:25;;;;;;;5.85;2.27;;;;;;;0.86;59.03;99285.23;1746844;81;21621;-57
2021/03/23 09:18:16;;;;;;;3.20;1.80;;;;;;;0.88;58.54;99283.41;1731597;83;21304;-57
2021/03/23 09:20:50;;;;;;;4.40;2.47;;;;;;;0.96;58.04;99284.16;1748742;81;21570;-55
2021/03/23 09:23:27;;;;;;;4.65;2.60;;;;;;;1.09;58.42;99272.06;1740509;81;21508;-56
2021/03/23 09:26:01;;;;;;;13.05;5.05;;;;;;;1.20;57.98;99273.42;1749745;81;21269;-57
2021/03/23 09:28:39;;;;;;;5.15;2.50;;;;;;;1.34;58.21;99275.01;1762221;81;21565;-56
2021/03/23 09:31:12;;;;;;;11.85;5.60;;;;;;;1.55;57.15;99274.77;1761794;81;21602;-56
2021/03/23 09:33:50;;;;;;;5.50;2.12;;;;;;;1.73;55.48;99269.19;1761921;81;21725;-56
2021/03/23 09:36:44;;;;;;;10.08;4.35;;;;;;;1.81;54.47;99270.76;1750605;81;21562;-56
2021/03/23 09:39:24;;;;;;;6.47;3.98;;;;;;;1.83;54.63;99269.70;1740644;81;21594;-55
2021/03/23 09:42:24;;;;;;;7.92;2.62;;;;;;;1.96;54.22;99274.77;1736479;82;21132;-57
2021/03/23 09:45:06;;;;;;;11.05;4.35;;;;;;;2.02;53.58;99269.63;1730894;81;21167;-58
2021/03/23 09:47:38;;;;;;;5.33;2.58;;;;;;;1.94;52.48;99271.97;1732374;82;21171;-57
2021/03/23 09:50:34;;;;;;;4.33;2.27;;;;;;;1.87;52.43;99270.31;1732581;82;21159;-57
2021/03/23 09:53:16;;;;;;;2.65;1.82;;;;;;;1.83;52.85;99267.13;1731237;81;21636;-56
2021/03/23 09:55:45;;;;;;;6.30;2.27;;;;;;;1.89;53.53;99263.28;1720073;82;21614;-57
2021/03/23 09:58:24;;;;;;;1.27;1.12;;;;;;;1.98;52.97;99263.88;1716069;83;21184;-57
2021/03/23 10:00:52;;;;;;;6.85;3.10;;;;;;;1.96;53.27;99271.38;1707597;83;22014;-58
2021/03/23 10:03:34;;;;;;;11.40;4.85;;;;;;;2.00;53.34;99267.17;1715696;83;22345;-57
2021/03/23 10:06:06;;;;;;;6.17;2.85;;;;;;;2.07;53.15;99276.09;1716148;83;21191;-57
2021/03/23 16:55:03;;;;;;;63.05;7.22;;;;;;;-0.16;62.16;99633.21;1853569;77;25107;-54
